Hauptseite
METAR-TAF:

METAR-TAF

Flughäfen :

Flughafen Trapani

Trapani, Italien

Breite: 37-55N, Länge: 012-30E, Höhe: 7 m

Beobachtung

Neuester Wetterbericht von vor 43 Minuten, um 09:55 UTC
Wind 6 kt aus West
Temperatur 23°C
Luftfeuchtigkeit 69%
Luftdruck 1017 hPa
Sichtweite: 9000 m
Leicht bewölkt in der Höhe von 1400 ft

METAR: LICT 250955Z 26006KT 9000 FEW014 23/17 Q1017 RMK FEW VIS MIN 9000 WIND THR13 26005KT BLU

Zeit: 12:38 (10:38 UTC)

Prognose

Neuester Wetterbericht von vor 2 Stunden und 38 Minuten, um 08:00 UTC
Gültige Prognose vom 25 um 09 UTC bis 25 um 18 UTC
Wind 7 kt aus West/Nordwest
Sichtweite 10 km oder mehr
keine Wolken unter 1500 m und keine Kumulonimbus oder Gewitterwolken

TAF: LICT 250800Z 2509/2518 30007KT CAVOK

Wetterbeobachtungen und Prognosen von mehr als 4000 Flughäfen (METAR und TAF Bericht).

Die verfügbaren Stationen werden durch gelbe und rote Markierungen auf der Karte dargestellt.

Führen Sie die Maus auf sie, um den Namen der Station zu sehen.

Darauf klicken, um die Beobachtung von Wetterbeobachtungen und Prognosen zu sehen.

Um die Karte zu ändern : klicken Sie auf den grünen Tasten mit einem schwarzen Kreuz Zum Vergrößern, auf den grünen Button mit einem Gedankenstrich zu verkleinern, oder auf die grünen Pfeile für benachbarte Karten.


METAR-TAF: